sensor_id;sensor_type;location;lat;lon;timestamp;temperature;humidity
431;DHT22;202;48.764;9.172;2022-09-09T00:01:54;18.30;46.10
431;DHT22;202;48.764;9.172;2022-09-09T00:04:38;18.30;46.10
431;DHT22;202;48.764;9.172;2022-09-09T00:07:40;18.30;46.10
431;DHT22;202;48.764;9.172;2022-09-09T00:10:48;18.20;46.00
431;DHT22;202;48.764;9.172;2022-09-09T00:14:12;18.10;46.40
431;DHT22;202;48.764;9.172;2022-09-09T00:31:18;17.60;47.90
431;DHT22;202;48.764;9.172;2022-09-09T00:45:19;18.00;46.60
431;DHT22;202;48.764;9.172;2022-09-09T01:43:38;18.20;45.20
431;DHT22;202;48.764;9.172;2022-09-09T01:46:05;18.10;45.40
431;DHT22;202;48.764;9.172;2022-09-09T01:48:32;18.10;45.60
431;DHT22;202;48.764;9.172;2022-09-09T01:50:59;18.20;46.20
431;DHT22;202;48.764;9.172;2022-09-09T01:53:26;18.20;45.70
431;DHT22;202;48.764;9.172;2022-09-09T01:56:07;18.20;45.60
431;DHT22;202;48.764;9.172;2022-09-09T01:59:08;18.10;46.00
431;DHT22;202;48.764;9.172;2022-09-09T02:01:46;18.20;45.60
431;DHT22;202;48.764;9.172;2022-09-09T02:04:27;18.30;45.40
431;DHT22;202;48.764;9.172;2022-09-09T02:06:59;18.20;45.50
431;DHT22;202;48.764;9.172;2022-09-09T02:09:27;18.30;45.60
431;DHT22;202;48.764;9.172;2022-09-09T02:11:59;18.30;44.80
431;DHT22;202;48.764;9.172;2022-09-09T02:14:33;18.40;45.20
431;DHT22;202;48.764;9.172;2022-09-09T02:17:05;18.50;44.90
431;DHT22;202;48.764;9.172;2022-09-09T02:19:37;18.50;44.80
431;DHT22;202;48.764;9.172;2022-09-09T02:22:05;18.60;44.50
431;DHT22;202;48.764;9.172;2022-09-09T02:24:34;18.60;44.90
431;DHT22;202;48.764;9.172;2022-09-09T02:27:04;18.50;44.90
431;DHT22;202;48.764;9.172;2022-09-09T02:29:37;18.40;45.30
431;DHT22;202;48.764;9.172;2022-09-09T02:32:08;18.30;45.70
431;DHT22;202;48.764;9.172;2022-09-09T02:34:37;18.20;46.00
431;DHT22;202;48.764;9.172;2022-09-09T02:37:08;18.30;46.10
431;DHT22;202;48.764;9.172;2022-09-09T02:39:36;18.40;46.10
431;DHT22;202;48.764;9.172;2022-09-09T02:42:04;18.40;46.00
431;DHT22;202;48.764;9.172;2022-09-09T02:44:32;18.40;45.60
431;DHT22;202;48.764;9.172;2022-09-09T02:47:19;18.40;45.90
431;DHT22;202;48.764;9.172;2022-09-09T02:49:59;18.50;45.70
431;DHT22;202;48.764;9.172;2022-09-09T02:52:35;18.50;45.60
431;DHT22;202;48.764;9.172;2022-09-09T02:55:07;18.50;45.50
431;DHT22;202;48.764;9.172;2022-09-09T02:57:36;18.50;45.70
431;DHT22;202;48.764;9.172;2022-09-09T03:00:04;18.50;45.50
431;DHT22;202;48.764;9.172;2022-09-09T03:02:32;18.50;45.60
431;DHT22;202;48.764;9.172;2022-09-09T03:04:59;18.50;45.20
431;DHT22;202;48.764;9.172;2022-09-09T03:07:26;18.40;45.40
431;DHT22;202;48.764;9.172;2022-09-09T03:09:53;18.40;45.70
431;DHT22;202;48.764;9.172;2022-09-09T03:12:20;18.30;45.70
431;DHT22;202;48.764;9.172;2022-09-09T03:14:47;18.20;46.00
431;DHT22;202;48.764;9.172;2022-09-09T03:17:13;18.20;46.70
431;DHT22;202;48.764;9.172;2022-09-09T03:19:41;18.00;47.10
431;DHT22;202;48.764;9.172;2022-09-09T03:22:10;18.00;47.30
431;DHT22;202;48.764;9.172;2022-09-09T03:24:36;18.00;47.50
431;DHT22;202;48.764;9.172;2022-09-09T03:27:03;18.00;47.70
431;DHT22;202;48.764;9.172;2022-09-09T03:29:30;18.00;47.60
431;DHT22;202;48.764;9.172;2022-09-09T03:31:58;17.90;48.00
431;DHT22;202;48.764;9.172;2022-09-09T03:34:25;17.80;47.90
431;DHT22;202;48.764;9.172;2022-09-09T03:36:53;17.80;48.20
431;DHT22;202;48.764;9.172;2022-09-09T03:39:20;18.00;47.90
431;DHT22;202;48.764;9.172;2022-09-09T03:41:47;18.00;47.80
431;DHT22;202;48.764;9.172;2022-09-09T03:44:14;18.00;47.80
431;DHT22;202;48.764;9.172;2022-09-09T03:46:41;18.10;47.80
431;DHT22;202;48.764;9.172;2022-09-09T03:49:08;18.10;47.40
431;DHT22;202;48.764;9.172;2022-09-09T03:51:35;18.00;47.40
431;DHT22;202;48.764;9.172;2022-09-09T03:54:05;18.10;47.60
431;DHT22;202;48.764;9.172;2022-09-09T03:56:33;17.90;47.90
431;DHT22;202;48.764;9.172;2022-09-09T03:59:00;17.70;48.60
431;DHT22;202;48.764;9.172;2022-09-09T04:01:27;17.60;49.10
431;DHT22;202;48.764;9.172;2022-09-09T04:03:54;17.30;50.20
431;DHT22;202;48.764;9.172;2022-09-09T04:06:24;17.30;50.20
431;DHT22;202;48.764;9.172;2022-09-09T04:08:51;17.30;50.20
431;DHT22;202;48.764;9.172;2022-09-09T04:11:19;17.40;50.30
431;DHT22;202;48.764;9.172;2022-09-09T04:13:47;17.50;50.40
431;DHT22;202;48.764;9.172;2022-09-09T04:16:15;17.60;49.90
431;DHT22;202;48.764;9.172;2022-09-09T04:18:42;17.60;50.50
431;DHT22;202;48.764;9.172;2022-09-09T04:21:10;17.60;49.90
431;DHT22;202;48.764;9.172;2022-09-09T04:23:38;17.60;50.00
431;DHT22;202;48.764;9.172;2022-09-09T04:26:05;17.70;50.00
431;DHT22;202;48.764;9.172;2022-09-09T04:28:35;17.70;49.20
431;DHT22;202;48.764;9.172;2022-09-09T04:31:06;17.70;49.70
431;DHT22;202;48.764;9.172;2022-09-09T04:33:35;17.70;49.50
431;DHT22;202;48.764;9.172;2022-09-09T04:36:02;17.70;49.40
431;DHT22;202;48.764;9.172;2022-09-09T04:38:29;17.70;49.80
431;DHT22;202;48.764;9.172;2022-09-09T04:40:56;17.70;49.70
431;DHT22;202;48.764;9.172;2022-09-09T04:43:23;17.60;50.00
431;DHT22;202;48.764;9.172;2022-09-09T04:45:52;17.50;50.40
431;DHT22;202;48.764;9.172;2022-09-09T04:48:20;17.50;50.40
431;DHT22;202;48.764;9.172;2022-09-09T04:50:54;17.60;50.50
431;DHT22;202;48.764;9.172;2022-09-09T04:53:22;17.50;50.40
431;DHT22;202;48.764;9.172;2022-09-09T04:55:48;17.50;50.40
431;DHT22;202;48.764;9.172;2022-09-09T04:58:15;17.50;50.40
431;DHT22;202;48.764;9.172;2022-09-09T05:00:42;17.50;50.40
431;DHT22;202;48.764;9.172;2022-09-09T05:03:11;17.40;50.30
431;DHT22;202;48.764;9.172;2022-09-09T05:05:38;17.30;51.20
431;DHT22;202;48.764;9.172;2022-09-09T05:08:06;17.30;51.70
431;DHT22;202;48.764;9.172;2022-09-09T05:10:36;17.30;51.70
431;DHT22;202;48.764;9.172;2022-09-09T05:13:03;17.30;51.70
431;DHT22;202;48.764;9.172;2022-09-09T05:15:31;17.20;52.10
431;DHT22;202;48.764;9.172;2022-09-09T05:17:58;17.00;53.40
431;DHT22;202;48.764;9.172;2022-09-09T05:20:27;17.00;53.20
431;DHT22;202;48.764;9.172;2022-09-09T05:22:54;17.00;54.10
431;DHT22;202;48.764;9.172;2022-09-09T05:25:21;17.10;53.70
431;DHT22;202;48.764;9.172;2022-09-09T05:27:49;17.10;53.50
431;DHT22;202;48.764;9.172;2022-09-09T05:30:16;17.10;53.50
431;DHT22;202;48.764;9.172;2022-09-09T05:32:44;17.10;53.50
431;DHT22;202;48.764;9.172;2022-09-09T05:35:14;17.10;53.70
431;DHT22;202;48.764;9.172;2022-09-09T05:37:42;17.20;53.60
431;DHT22;202;48.764;9.172;2022-09-09T05:40:09;17.30;53.00
431;DHT22;202;48.764;9.172;2022-09-09T05:42:36;17.40;52.70
431;DHT22;202;48.764;9.172;2022-09-09T05:45:05;17.40;52.50
431;DHT22;202;48.764;9.172;2022-09-09T05:47:33;17.50;52.70
431;DHT22;202;48.764;9.172;2022-09-09T05:49:59;17.60;52.30
431;DHT22;202;48.764;9.172;2022-09-09T05:52:26;17.70;51.90
431;DHT22;202;48.764;9.172;2022-09-09T05:54:55;17.60;52.20
431;DHT22;202;48.764;9.172;2022-09-09T05:57:22;17.50;52.80
431;DHT22;202;48.764;9.172;2022-09-09T05:59:49;17.30;53.60
431;DHT22;202;48.764;9.172;2022-09-09T06:02:16;17.50;53.40
431;DHT22;202;48.764;9.172;2022-09-09T06:04:43;17.40;53.40
431;DHT22;202;48.764;9.172;2022-09-09T06:07:09;17.40;53.40
431;DHT22;202;48.764;9.172;2022-09-09T06:09:36;17.50;53.50
431;DHT22;202;48.764;9.172;2022-09-09T06:12:05;17.50;53.10
431;DHT22;202;48.764;9.172;2022-09-09T06:14:32;17.60;53.00
431;DHT22;202;48.764;9.172;2022-09-09T06:16:58;17.60;52.80
431;DHT22;202;48.764;9.172;2022-09-09T06:19:25;17.70;52.30
431;DHT22;202;48.764;9.172;2022-09-09T06:21:52;17.90;51.90
431;DHT22;202;48.764;9.172;2022-09-09T06:24:19;18.00;51.20
431;DHT22;202;48.764;9.172;2022-09-09T06:26:45;18.10;50.90
431;DHT22;202;48.764;9.172;2022-09-09T06:29:14;18.20;51.00
431;DHT22;202;48.764;9.172;2022-09-09T06:31:40;18.30;51.10
431;DHT22;202;48.764;9.172;2022-09-09T06:34:08;18.30;51.10
431;DHT22;202;48.764;9.172;2022-09-09T06:36:36;18.30;51.10
431;DHT22;202;48.764;9.172;2022-09-09T06:39:04;18.30;51.10
431;DHT22;202;48.764;9.172;2022-09-09T06:41:32;18.30;51.10
431;DHT22;202;48.764;9.172;2022-09-09T06:43:59;18.30;51.10
431;DHT22;202;48.764;9.172;2022-09-09T06:46:28;18.30;51.10
431;DHT22;202;48.764;9.172;2022-09-09T06:49:01;18.30;51.10
431;DHT22;202;48.764;9.172;2022-09-09T06:51:30;18.40;51.20
431;DHT22;202;48.764;9.172;2022-09-09T06:53:58;18.20;51.20
431;DHT22;202;48.764;9.172;2022-09-09T06:56:26;18.30;51.10
431;DHT22;202;48.764;9.172;2022-09-09T06:58:55;18.50;51.30
431;DHT22;202;48.764;9.172;2022-09-09T07:01:23;18.50;51.30
431;DHT22;202;48.764;9.172;2022-09-09T07:03:53;18.60;51.40
431;DHT22;202;48.764;9.172;2022-09-09T07:06:22;18.60;51.40
431;DHT22;202;48.764;9.172;2022-09-09T07:08:51;18.50;51.30
431;DHT22;202;48.764;9.172;2022-09-09T07:11:18;18.50;51.70
431;DHT22;202;48.764;9.172;2022-09-09T07:13:47;18.50;51.90
431;DHT22;202;48.764;9.172;2022-09-09T07:16:15;18.40;51.90
431;DHT22;202;48.764;9.172;2022-09-09T07:18:43;18.50;52.10
431;DHT22;202;48.764;9.172;2022-09-09T07:21:13;18.70;51.40
431;DHT22;202;48.764;9.172;2022-09-09T07:23:41;19.00;51.70
431;DHT22;202;48.764;9.172;2022-09-09T07:26:09;19.00;50.70
431;DHT22;202;48.764;9.172;2022-09-09T07:28:36;19.20;49.90
431;DHT22;202;48.764;9.172;2022-09-09T07:31:04;19.50;49.40
431;DHT22;202;48.764;9.172;2022-09-09T07:33:33;19.80;48.90
431;DHT22;202;48.764;9.172;2022-09-09T07:36:05;20.60;46.20
431;DHT22;202;48.764;9.172;2022-09-09T07:38:38;21.10;44.40
431;DHT22;202;48.764;9.172;2022-09-09T07:41:07;21.40;43.40
431;DHT22;202;48.764;9.172;2022-09-09T07:59:45;22.70;39.00
431;DHT22;202;48.764;9.172;2022-09-09T08:05:48;24.50;36.40
431;DHT22;202;48.764;9.172;2022-09-09T08:08:31;25.50;33.60
431;DHT22;202;48.764;9.172;2022-09-09T08:18:26;25.90;30.30
431;DHT22;202;48.764;9.172;2022-09-09T08:20:55;26.30;30.30
431;DHT22;202;48.764;9.172;2022-09-09T08:23:51;26.80;29.00
431;DHT22;202;48.764;9.172;2022-09-09T08:27:25;26.40;30.70
431;DHT22;202;48.764;9.172;2022-09-09T08:30:40;26.20;29.70
431;DHT22;202;48.764;9.172;2022-09-09T08:33:30;26.50;29.40
431;DHT22;202;48.764;9.172;2022-09-09T08:36:34;26.50;29.20
431;DHT22;202;48.764;9.172;2022-09-09T08:39:18;26.30;29.80
431;DHT22;202;48.764;9.172;2022-09-09T08:42:20;25.90;29.50
431;DHT22;202;48.764;9.172;2022-09-09T08:45:55;25.70;30.50
431;DHT22;202;48.764;9.172;2022-09-09T08:49:14;25.90;30.20
431;DHT22;202;48.764;9.172;2022-09-09T08:52:50;26.20;29.80
431;DHT22;202;48.764;9.172;2022-09-09T08:55:43;26.30;29.70
431;DHT22;202;48.764;9.172;2022-09-09T09:01:53;25.90;29.60
431;DHT22;202;48.764;9.172;2022-09-09T09:05:26;26.40;29.00
431;DHT22;202;48.764;9.172;2022-09-09T09:39:51;21.70;38.80
431;DHT22;202;48.764;9.172;2022-09-09T09:45:48;21.90;37.70
431;DHT22;202;48.764;9.172;2022-09-09T09:48:23;22.50;36.60
431;DHT22;202;48.764;9.172;2022-09-09T09:50:56;23.10;35.20
431;DHT22;202;48.764;9.172;2022-09-09T09:53:40;23.30;33.30
431;DHT22;202;48.764;9.172;2022-09-09T10:03:12;24.60;30.70
431;DHT22;202;48.764;9.172;2022-09-09T10:05:57;24.60;29.80
431;DHT22;202;48.764;9.172;2022-09-09T10:08:49;24.40;30.80
431;DHT22;202;48.764;9.172;2022-09-09T10:11:34;24.50;31.60
431;DHT22;202;48.764;9.172;2022-09-09T10:14:42;24.70;32.00
431;DHT22;202;48.764;9.172;2022-09-09T10:17:49;24.70;32.10
431;DHT22;202;48.764;9.172;2022-09-09T10:21:03;24.90;31.90
431;DHT22;202;48.764;9.172;2022-09-09T10:23:58;24.90;31.40
431;DHT22;202;48.764;9.172;2022-09-09T10:26:40;24.20;32.00
431;DHT22;202;48.764;9.172;2022-09-09T10:29:30;24.10;33.40
431;DHT22;202;48.764;9.172;2022-09-09T10:32:28;24.10;34.00
431;DHT22;202;48.764;9.172;2022-09-09T10:35:02;23.90;34.10
431;DHT22;202;48.764;9.172;2022-09-09T10:54:32;23.70;35.70
431;DHT22;202;48.764;9.172;2022-09-09T11:00:27;23.50;36.50
431;DHT22;202;48.764;9.172;2022-09-09T11:03:33;23.80;35.80
431;DHT22;202;48.764;9.172;2022-09-09T11:07:08;24.10;36.10
431;DHT22;202;48.764;9.172;2022-09-09T11:16:58;24.00;31.90
431;DHT22;202;48.764;9.172;2022-09-09T11:19:52;23.90;31.70
431;DHT22;202;48.764;9.172;2022-09-09T11:23:04;23.80;31.30
431;DHT22;202;48.764;9.172;2022-09-09T11:36:59;22.90;31.20
431;DHT22;202;48.764;9.172;2022-09-09T11:39:43;22.70;31.80
431;DHT22;202;48.764;9.172;2022-09-09T11:42:18;22.40;32.70
431;DHT22;202;48.764;9.172;2022-09-09T11:44:45;22.20;33.70
431;DHT22;202;48.764;9.172;2022-09-09T11:47:24;22.10;33.70
431;DHT22;202;48.764;9.172;2022-09-09T11:49:55;21.60;34.50
431;DHT22;202;48.764;9.172;2022-09-09T11:52:40;21.60;34.30
431;DHT22;202;48.764;9.172;2022-09-09T11:55:29;21.70;35.40
431;DHT22;202;48.764;9.172;2022-09-09T11:57:59;21.80;35.10
431;DHT22;202;48.764;9.172;2022-09-09T12:00:34;21.70;35.60
431;DHT22;202;48.764;9.172;2022-09-09T12:03:06;21.80;35.60
431;DHT22;202;48.764;9.172;2022-09-09T12:05:40;21.90;34.10
431;DHT22;202;48.764;9.172;2022-09-09T12:08:16;22.00;33.40
431;DHT22;202;48.764;9.172;2022-09-09T12:10:56;22.00;34.10
431;DHT22;202;48.764;9.172;2022-09-09T12:13:26;21.90;34.10
431;DHT22;202;48.764;9.172;2022-09-09T12:15:59;21.60;33.80
431;DHT22;202;48.764;9.172;2022-09-09T12:18:33;21.50;33.80
431;DHT22;202;48.764;9.172;2022-09-09T12:21:07;21.60;33.80
431;DHT22;202;48.764;9.172;2022-09-09T12:23:41;21.60;33.80
431;DHT22;202;48.764;9.172;2022-09-09T12:26:22;21.60;33.90
431;DHT22;202;48.764;9.172;2022-09-09T12:28:59;21.80;34.00
431;DHT22;202;48.764;9.172;2022-09-09T12:31:33;21.90;34.10
431;DHT22;202;48.764;9.172;2022-09-09T12:34:11;21.90;32.10
431;DHT22;202;48.764;9.172;2022-09-09T12:36:41;22.10;30.60
431;DHT22;202;48.764;9.172;2022-09-09T12:39:19;22.20;31.50
431;DHT22;202;48.764;9.172;2022-09-09T12:41:52;22.40;31.00
431;DHT22;202;48.764;9.172;2022-09-09T12:44:23;22.40;29.50
431;DHT22;202;48.764;9.172;2022-09-09T12:46:51;22.50;29.80
431;DHT22;202;48.764;9.172;2022-09-09T12:49:28;22.40;30.10
431;DHT22;202;48.764;9.172;2022-09-09T12:51:56;22.40;30.20
431;DHT22;202;48.764;9.172;2022-09-09T12:54:25;22.40;31.10
431;DHT22;202;48.764;9.172;2022-09-09T12:56:52;22.40;31.20
431;DHT22;202;48.764;9.172;2022-09-09T12:59:23;22.50;31.50
431;DHT22;202;48.764;9.172;2022-09-09T13:01:58;22.60;33.00
431;DHT22;202;48.764;9.172;2022-09-09T13:04:25;22.80;30.70
431;DHT22;202;48.764;9.172;2022-09-09T13:06:52;22.80;29.50
431;DHT22;202;48.764;9.172;2022-09-09T13:09:21;22.70;29.80
431;DHT22;202;48.764;9.172;2022-09-09T13:11:52;22.60;30.50
431;DHT22;202;48.764;9.172;2022-09-09T13:14:29;22.50;30.90
431;DHT22;202;48.764;9.172;2022-09-09T13:16:59;22.40;31.80
431;DHT22;202;48.764;9.172;2022-09-09T13:19:29;22.50;31.00
431;DHT22;202;48.764;9.172;2022-09-09T13:21:57;22.60;31.10
431;DHT22;202;48.764;9.172;2022-09-09T13:24:30;22.60;31.30
431;DHT22;202;48.764;9.172;2022-09-09T13:27:01;22.80;31.20
431;DHT22;202;48.764;9.172;2022-09-09T13:29:29;22.80;31.00
431;DHT22;202;48.764;9.172;2022-09-09T13:32:16;22.90;30.90
431;DHT22;202;48.764;9.172;2022-09-09T13:34:50;22.90;31.00
431;DHT22;202;48.764;9.172;2022-09-09T13:37:23;23.00;29.20
431;DHT22;202;48.764;9.172;2022-09-09T13:39:53;23.00;29.40
431;DHT22;202;48.764;9.172;2022-09-09T13:42:26;23.00;29.10
431;DHT22;202;48.764;9.172;2022-09-09T13:45:51;23.00;28.20
431;DHT22;202;48.764;9.172;2022-09-09T13:48:42;23.00;28.10
431;DHT22;202;48.764;9.172;2022-09-09T13:51:35;22.90;28.20
431;DHT22;202;48.764;9.172;2022-09-09T13:54:11;22.80;28.00
431;DHT22;202;48.764;9.172;2022-09-09T13:56:48;22.80;29.10
431;DHT22;202;48.764;9.172;2022-09-09T14:02:38;22.90;28.10
431;DHT22;202;48.764;9.172;2022-09-09T14:05:06;22.90;28.60
431;DHT22;202;48.764;9.172;2022-09-09T14:07:34;22.70;28.70
431;DHT22;202;48.764;9.172;2022-09-09T14:10:01;22.70;28.70
431;DHT22;202;48.764;9.172;2022-09-09T14:12:38;22.90;28.30
431;DHT22;202;48.764;9.172;2022-09-09T14:15:10;23.00;29.30
431;DHT22;202;48.764;9.172;2022-09-09T14:17:38;23.00;27.90
431;DHT22;202;48.764;9.172;2022-09-09T14:20:06;23.00;28.70
431;DHT22;202;48.764;9.172;2022-09-09T14:22:35;23.10;28.40
431;DHT22;202;48.764;9.172;2022-09-09T14:25:07;23.20;27.20
431;DHT22;202;48.764;9.172;2022-09-09T14:27:37;23.20;27.70
431;DHT22;202;48.764;9.172;2022-09-09T14:30:06;23.10;27.40
431;DHT22;202;48.764;9.172;2022-09-09T14:32:35;23.10;27.90
431;DHT22;202;48.764;9.172;2022-09-09T16:28:34;22.50;27.40
431;DHT22;202;48.764;9.172;2022-09-09T16:31:55;22.50;27.60
431;DHT22;202;48.764;9.172;2022-09-09T17:00:35;21.60;31.30
431;DHT22;202;48.764;9.172;2022-09-09T17:03:36;21.50;31.80
431;DHT22;202;48.764;9.172;2022-09-09T17:27:41;20.70;33.00
431;DHT22;202;48.764;9.172;2022-09-09T17:30:12;20.70;33.00
431;DHT22;202;48.764;9.172;2022-09-09T17:32:39;20.60;33.80
431;DHT22;202;48.764;9.172;2022-09-09T17:35:30;20.60;34.30
431;DHT22;202;48.764;9.172;2022-09-09T17:38:39;20.60;34.60
431;DHT22;202;48.764;9.172;2022-09-09T17:41:21;20.60;35.00
431;DHT22;202;48.764;9.172;2022-09-09T17:44:04;20.50;35.20
431;DHT22;202;48.764;9.172;2022-09-09T17:46:46;20.40;35.60
431;DHT22;202;48.764;9.172;2022-09-09T17:49:14;20.30;35.80
431;DHT22;202;48.764;9.172;2022-09-09T17:51:55;20.30;36.30
431;DHT22;202;48.764;9.172;2022-09-09T17:54:22;20.40;36.40
431;DHT22;202;48.764;9.172;2022-09-09T17:56:50;20.50;36.30
431;DHT22;202;48.764;9.172;2022-09-09T17:59:19;20.40;36.40
431;DHT22;202;48.764;9.172;2022-09-09T18:01:47;20.40;36.60
431;DHT22;202;48.764;9.172;2022-09-09T18:04:16;20.40;36.60
431;DHT22;202;48.764;9.172;2022-09-09T18:06:45;20.40;36.80
431;DHT22;202;48.764;9.172;2022-09-09T18:09:14;20.40;37.20
431;DHT22;202;48.764;9.172;2022-09-09T18:11:50;20.20;37.30
431;DHT22;202;48.764;9.172;2022-09-09T18:14:22;20.20;37.40
431;DHT22;202;48.764;9.172;2022-09-09T18:16:52;20.20;37.80
431;DHT22;202;48.764;9.172;2022-09-09T18:19:20;20.20;37.70
431;DHT22;202;48.764;9.172;2022-09-09T18:21:48;20.20;37.90
431;DHT22;202;48.764;9.172;2022-09-09T18:24:17;20.30;37.80
431;DHT22;202;48.764;9.172;2022-09-09T18:26:45;20.30;37.80
431;DHT22;202;48.764;9.172;2022-09-09T18:29:14;20.20;37.90
431;DHT22;202;48.764;9.172;2022-09-09T18:31:44;20.30;37.80
431;DHT22;202;48.764;9.172;2022-09-09T18:34:13;20.30;38.30
431;DHT22;202;48.764;9.172;2022-09-09T18:36:41;20.20;38.20
431;DHT22;202;48.764;9.172;2022-09-09T18:39:10;20.10;38.40
431;DHT22;202;48.764;9.172;2022-09-09T18:41:38;20.10;38.50
431;DHT22;202;48.764;9.172;2022-09-09T18:44:09;20.10;38.80
431;DHT22;202;48.764;9.172;2022-09-09T18:46:38;20.10;38.50
431;DHT22;202;48.764;9.172;2022-09-09T19:45:55;19.90;41.10
431;DHT22;202;48.764;9.172;2022-09-09T19:48:23;19.90;40.50
431;DHT22;202;48.764;9.172;2022-09-09T19:50:51;19.80;40.30
431;DHT22;202;48.764;9.172;2022-09-09T19:53:18;19.90;40.40
431;DHT22;202;48.764;9.172;2022-09-09T19:55:48;19.90;40.50
431;DHT22;202;48.764;9.172;2022-09-09T19:58:15;19.80;40.90
431;DHT22;202;48.764;9.172;2022-09-09T20:00:43;19.80;40.80
431;DHT22;202;48.764;9.172;2022-09-09T20:03:11;19.80;40.70
431;DHT22;202;48.764;9.172;2022-09-09T20:05:38;19.80;40.80
431;DHT22;202;48.764;9.172;2022-09-09T20:08:04;19.70;40.80
431;DHT22;202;48.764;9.172;2022-09-09T20:10:31;19.80;40.80
431;DHT22;202;48.764;9.172;2022-09-09T20:12:58;19.70;41.00
431;DHT22;202;48.764;9.172;2022-09-09T20:15:25;19.60;41.50
431;DHT22;202;48.764;9.172;2022-09-09T20:17:52;19.70;41.30
431;DHT22;202;48.764;9.172;2022-09-09T20:20:21;19.60;41.70
431;DHT22;202;48.764;9.172;2022-09-09T20:22:47;19.50;42.10
431;DHT22;202;48.764;9.172;2022-09-09T20:25:14;19.40;42.10
431;DHT22;202;48.764;9.172;2022-09-09T20:27:41;19.40;42.10
431;DHT22;202;48.764;9.172;2022-09-09T20:30:10;19.40;42.20
431;DHT22;202;48.764;9.172;2022-09-09T20:32:37;19.30;42.00
431;DHT22;202;48.764;9.172;2022-09-09T20:35:05;19.40;42.10
431;DHT22;202;48.764;9.172;2022-09-09T20:37:34;19.40;42.10
431;DHT22;202;48.764;9.172;2022-09-09T20:40:01;19.40;42.10
431;DHT22;202;48.764;9.172;2022-09-09T20:42:28;19.40;42.10
431;DHT22;202;48.764;9.172;2022-09-09T20:44:55;19.40;42.10
431;DHT22;202;48.764;9.172;2022-09-09T20:47:22;19.30;42.00
431;DHT22;202;48.764;9.172;2022-09-09T20:49:48;19.30;42.00
431;DHT22;202;48.764;9.172;2022-09-09T20:52:15;19.30;42.00
431;DHT22;202;48.764;9.172;2022-09-09T20:54:46;19.40;42.10
431;DHT22;202;48.764;9.172;2022-09-09T20:57:13;19.40;42.10
431;DHT22;202;48.764;9.172;2022-09-09T20:59:44;19.40;42.10
431;DHT22;202;48.764;9.172;2022-09-09T21:02:12;19.40;42.10
431;DHT22;202;48.764;9.172;2022-09-09T21:04:39;19.40;42.10
431;DHT22;202;48.764;9.172;2022-09-09T21:07:07;19.40;42.10
431;DHT22;202;48.764;9.172;2022-09-09T21:09:34;19.30;42.00
431;DHT22;202;48.764;9.172;2022-09-09T21:12:02;19.30;42.00
431;DHT22;202;48.764;9.172;2022-09-09T21:14:29;19.30;42.00
431;DHT22;202;48.764;9.172;2022-09-09T21:16:57;19.20;41.90
431;DHT22;202;48.764;9.172;2022-09-09T21:19:24;19.20;41.90
431;DHT22;202;48.764;9.172;2022-09-09T21:21:51;19.20;41.90
431;DHT22;202;48.764;9.172;2022-09-09T21:24:18;19.30;42.00
431;DHT22;202;48.764;9.172;2022-09-09T21:26:45;19.20;41.90
431;DHT22;202;48.764;9.172;2022-09-09T21:29:13;19.10;42.20
431;DHT22;202;48.764;9.172;2022-09-09T21:31:40;19.10;42.00
431;DHT22;202;48.764;9.172;2022-09-09T21:34:08;19.10;42.40
431;DHT22;202;48.764;9.172;2022-09-09T21:36:37;19.10;42.50
431;DHT22;202;48.764;9.172;2022-09-09T21:39:05;19.00;42.50
431;DHT22;202;48.764;9.172;2022-09-09T21:41:32;19.00;42.90
431;DHT22;202;48.764;9.172;2022-09-09T21:44:00;19.00;42.80
431;DHT22;202;48.764;9.172;2022-09-09T21:46:30;19.00;43.00
431;DHT22;202;48.764;9.172;2022-09-09T21:48:57;18.90;43.20
431;DHT22;202;48.764;9.172;2022-09-09T21:51:28;18.90;43.30
431;DHT22;202;48.764;9.172;2022-09-09T21:53:55;18.90;43.20
431;DHT22;202;48.764;9.172;2022-09-09T21:56:22;18.90;43.40
431;DHT22;202;48.764;9.172;2022-09-09T21:58:53;18.80;43.80
431;DHT22;202;48.764;9.172;2022-09-09T22:01:20;18.70;44.20
431;DHT22;202;48.764;9.172;2022-09-09T22:03:51;18.60;44.70
431;DHT22;202;48.764;9.172;2022-09-09T22:06:18;18.70;44.30
431;DHT22;202;48.764;9.172;2022-09-09T22:08:45;18.70;44.40
431;DHT22;202;48.764;9.172;2022-09-09T22:11:14;18.70;44.40
431;DHT22;202;48.764;9.172;2022-09-09T22:13:41;18.70;44.60
431;DHT22;202;48.764;9.172;2022-09-09T22:16:11;18.60;44.80
431;DHT22;202;48.764;9.172;2022-09-09T22:18:38;18.70;44.50
431;DHT22;202;48.764;9.172;2022-09-09T22:21:07;18.70;44.50
431;DHT22;202;48.764;9.172;2022-09-09T22:23:35;18.60;44.90
431;DHT22;202;48.764;9.172;2022-09-09T22:26:02;18.60;45.50
431;DHT22;202;48.764;9.172;2022-09-09T22:28:29;18.60;45.60
431;DHT22;202;48.764;9.172;2022-09-09T22:30:56;18.60;45.40
431;DHT22;202;48.764;9.172;2022-09-09T22:33:23;18.60;45.50
431;DHT22;202;48.764;9.172;2022-09-09T22:35:52;18.60;45.80
431;DHT22;202;48.764;9.172;2022-09-09T22:38:20;18.70;45.60
431;DHT22;202;48.764;9.172;2022-09-09T22:40:47;18.70;45.50
431;DHT22;202;48.764;9.172;2022-09-09T22:43:15;18.70;45.60
431;DHT22;202;48.764;9.172;2022-09-09T22:45:43;18.70;45.50
431;DHT22;202;48.764;9.172;2022-09-09T22:48:11;18.60;45.90
431;DHT22;202;48.764;9.172;2022-09-09T22:50:38;18.50;46.30
431;DHT22;202;48.764;9.172;2022-09-09T22:53:06;18.60;46.40
431;DHT22;202;48.764;9.172;2022-09-09T22:55:35;18.50;46.30
431;DHT22;202;48.764;9.172;2022-09-09T22:58:02;18.50;46.40
431;DHT22;202;48.764;9.172;2022-09-09T23:00:28;18.50;46.30
431;DHT22;202;48.764;9.172;2022-09-09T23:02:55;18.50;46.60
431;DHT22;202;48.764;9.172;2022-09-09T23:05:23;18.50;46.70
431;DHT22;202;48.764;9.172;2022-09-09T23:07:52;18.50;47.40
431;DHT22;202;48.764;9.172;2022-09-09T23:10:22;18.60;46.70
431;DHT22;202;48.764;9.172;2022-09-09T23:12:50;18.60;47.30
431;DHT22;202;48.764;9.172;2022-09-09T23:15:17;18.60;49.00
431;DHT22;202;48.764;9.172;2022-09-09T23:17:44;18.70;51.40
431;DHT22;202;48.764;9.172;2022-09-09T23:20:11;18.60;52.70
431;DHT22;202;48.764;9.172;2022-09-09T23:22:38;18.50;52.90
431;DHT22;202;48.764;9.172;2022-09-09T23:25:06;18.50;55.00
431;DHT22;202;48.764;9.172;2022-09-09T23:27:33;18.30;58.40
431;DHT22;202;48.764;9.172;2022-09-09T23:30:03;17.90;60.40
431;DHT22;202;48.764;9.172;2022-09-09T23:32:31;18.00;62.80
431;DHT22;202;48.764;9.172;2022-09-09T23:34:58;17.80;67.30
431;DHT22;202;48.764;9.172;2022-09-09T23:37:25;17.50;72.60
431;DHT22;202;48.764;9.172;2022-09-09T23:39:52;17.20;77.00
431;DHT22;202;48.764;9.172;2022-09-09T23:42:19;17.00;78.80
431;DHT22;202;48.764;9.172;2022-09-09T23:44:46;16.90;79.00
431;DHT22;202;48.764;9.172;2022-09-09T23:47:14;16.90;80.60
431;DHT22;202;48.764;9.172;2022-09-09T23:49:41;17.00;82.50
431;DHT22;202;48.764;9.172;2022-09-09T23:52:09;17.10;82.90
431;DHT22;202;48.764;9.172;2022-09-09T23:54:36;17.10;82.50
431;DHT22;202;48.764;9.172;2022-09-09T23:57:03;17.00;81.20
431;DHT22;202;48.764;9.172;2022-09-09T23:59:30;17.00;81.80
